sensor_id;sensor_type;location;lat;lon;timestamp;temperature;humidity
51383;DHT22;37475;43.358;1.248;2023-02-14T00:00:41;6.00;91.40
51383;DHT22;37475;43.358;1.248;2023-02-14T00:03:07;5.90;91.40
51383;DHT22;37475;43.358;1.248;2023-02-14T00:05:33;5.90;91.30
51383;DHT22;37475;43.358;1.248;2023-02-14T00:07:59;5.90;91.30
51383;DHT22;37475;43.358;1.248;2023-02-14T00:10:25;5.90;91.20
51383;DHT22;37475;43.358;1.248;2023-02-14T00:12:51;6.00;91.40
51383;DHT22;37475;43.358;1.248;2023-02-14T00:15:17;5.90;91.50
51383;DHT22;37475;43.358;1.248;2023-02-14T00:17:54;5.90;91.40
51383;DHT22;37475;43.358;1.248;2023-02-14T00:20:21;5.90;91.50
51383;DHT22;37475;43.358;1.248;2023-02-14T00:22:48;5.90;91.60
51383;DHT22;37475;43.358;1.248;2023-02-14T00:25:14;5.90;91.80
51383;DHT22;37475;43.358;1.248;2023-02-14T00:27:40;5.80;91.80
51383;DHT22;37475;43.358;1.248;2023-02-14T00:30:07;5.90;91.90
51383;DHT22;37475;43.358;1.248;2023-02-14T00:32:36;5.90;92.00
51383;DHT22;37475;43.358;1.248;2023-02-14T00:35:04;5.80;92.10
51383;DHT22;37475;43.358;1.248;2023-02-14T00:37:31;5.90;92.30
51383;DHT22;37475;43.358;1.248;2023-02-14T00:39:58;5.90;92.60
51383;DHT22;37475;43.358;1.248;2023-02-14T00:42:23;5.90;92.40
51383;DHT22;37475;43.358;1.248;2023-02-14T00:44:49;5.90;92.30
51383;DHT22;37475;43.358;1.248;2023-02-14T00:47:15;5.80;92.10
51383;DHT22;37475;43.358;1.248;2023-02-14T00:49:41;5.80;92.10
51383;DHT22;37475;43.358;1.248;2023-02-14T00:52:07;5.80;92.30
51383;DHT22;37475;43.358;1.248;2023-02-14T00:54:33;5.80;92.20
51383;DHT22;37475;43.358;1.248;2023-02-14T00:56:58;5.70;92.20
51383;DHT22;37475;43.358;1.248;2023-02-14T00:59:24;5.90;92.90
51383;DHT22;37475;43.358;1.248;2023-02-14T01:01:50;5.90;93.00
51383;DHT22;37475;43.358;1.248;2023-02-14T01:04:16;5.90;92.90
51383;DHT22;37475;43.358;1.248;2023-02-14T01:06:43;5.90;93.00
51383;DHT22;37475;43.358;1.248;2023-02-14T01:09:08;5.90;93.00
51383;DHT22;37475;43.358;1.248;2023-02-14T01:11:34;5.70;92.90
51383;DHT22;37475;43.358;1.248;2023-02-14T01:14:00;5.80;93.20
51383;DHT22;37475;43.358;1.248;2023-02-14T01:16:27;5.80;93.00
51383;DHT22;37475;43.358;1.248;2023-02-14T01:18:54;5.70;93.00
51383;DHT22;37475;43.358;1.248;2023-02-14T01:21:25;5.70;93.20
51383;DHT22;37475;43.358;1.248;2023-02-14T01:23:54;5.70;93.00
51383;DHT22;37475;43.358;1.248;2023-02-14T01:26:23;5.60;93.00
51383;DHT22;37475;43.358;1.248;2023-02-14T01:28:49;5.60;93.20
51383;DHT22;37475;43.358;1.248;2023-02-14T01:31:21;5.60;93.20
51383;DHT22;37475;43.358;1.248;2023-02-14T01:33:52;5.60;93.20
51383;DHT22;37475;43.358;1.248;2023-02-14T01:36:26;5.50;93.20
51383;DHT22;37475;43.358;1.248;2023-02-14T01:38:59;5.60;93.60
51383;DHT22;37475;43.358;1.248;2023-02-14T01:41:29;5.70;93.80
51383;DHT22;37475;43.358;1.248;2023-02-14T01:44:06;5.90;94.10
51383;DHT22;37475;43.358;1.248;2023-02-14T01:46:39;5.80;94.00
51383;DHT22;37475;43.358;1.248;2023-02-14T01:49:27;5.80;93.80
51383;DHT22;37475;43.358;1.248;2023-02-14T01:52:19;5.90;93.90
51383;DHT22;37475;43.358;1.248;2023-02-14T01:55:07;6.00;94.10
51383;DHT22;37475;43.358;1.248;2023-02-14T01:57:57;6.10;94.00
51383;DHT22;37475;43.358;1.248;2023-02-14T02:00:24;6.10;94.00
51383;DHT22;37475;43.358;1.248;2023-02-14T02:03:10;6.00;93.70
51383;DHT22;37475;43.358;1.248;2023-02-14T02:05:40;5.90;93.70
51383;DHT22;37475;43.358;1.248;2023-02-14T02:08:10;6.00;93.80
51383;DHT22;37475;43.358;1.248;2023-02-14T02:10:36;6.00;93.70
51383;DHT22;37475;43.358;1.248;2023-02-14T02:13:05;6.00;93.60
51383;DHT22;37475;43.358;1.248;2023-02-14T02:15:49;6.00;93.60
51383;DHT22;37475;43.358;1.248;2023-02-14T02:28:03;6.10;93.60
51383;DHT22;37475;43.358;1.248;2023-02-14T02:44:34;6.00;93.50
51383;DHT22;37475;43.358;1.248;2023-02-14T02:50:08;6.10;93.50
51383;DHT22;37475;43.358;1.248;2023-02-14T02:53:23;6.10;93.50
51383;DHT22;37475;43.358;1.248;2023-02-14T02:56:01;6.00;93.40
51383;DHT22;37475;43.358;1.248;2023-02-14T03:01:25;6.00;93.60
51383;DHT22;37475;43.358;1.248;2023-02-14T03:03:58;6.10;93.50
51383;DHT22;37475;43.358;1.248;2023-02-14T03:06:44;6.00;93.50
51383;DHT22;37475;43.358;1.248;2023-02-14T03:14:55;6.20;93.30
51383;DHT22;37475;43.358;1.248;2023-02-14T03:17:55;6.20;93.30
51383;DHT22;37475;43.358;1.248;2023-02-14T03:23:56;6.20;93.10
51383;DHT22;37475;43.358;1.248;2023-02-14T03:26:54;6.20;93.20
51383;DHT22;37475;43.358;1.248;2023-02-14T03:29:55;6.10;93.00
51383;DHT22;37475;43.358;1.248;2023-02-14T03:32:41;6.10;93.00
51383;DHT22;37475;43.358;1.248;2023-02-14T03:35:21;6.10;93.10
51383;DHT22;37475;43.358;1.248;2023-02-14T03:38:10;6.00;93.00
51383;DHT22;37475;43.358;1.248;2023-02-14T03:40:44;5.90;92.80
51383;DHT22;37475;43.358;1.248;2023-02-14T03:43:42;5.80;92.80
51383;DHT22;37475;43.358;1.248;2023-02-14T03:46:44;5.80;92.90
51383;DHT22;37475;43.358;1.248;2023-02-14T03:49:16;5.70;93.00
51383;DHT22;37475;43.358;1.248;2023-02-14T03:51:48;5.60;92.90
51383;DHT22;37475;43.358;1.248;2023-02-14T03:54:17;5.60;93.00
51383;DHT22;37475;43.358;1.248;2023-02-14T03:56:48;5.50;93.00
51383;DHT22;37475;43.358;1.248;2023-02-14T03:59:23;5.50;93.10
51383;DHT22;37475;43.358;1.248;2023-02-14T04:02:30;5.60;93.60
51383;DHT22;37475;43.358;1.248;2023-02-14T04:05:00;5.60;93.40
51383;DHT22;37475;43.358;1.248;2023-02-14T04:07:29;5.60;93.80
51383;DHT22;37475;43.358;1.248;2023-02-14T04:09:55;5.60;93.60
51383;DHT22;37475;43.358;1.248;2023-02-14T04:12:21;5.60;93.60
51383;DHT22;37475;43.358;1.248;2023-02-14T04:14:47;5.60;93.50
51383;DHT22;37475;43.358;1.248;2023-02-14T04:17:13;5.50;93.40
51383;DHT22;37475;43.358;1.248;2023-02-14T04:19:57;5.50;93.50
51383;DHT22;37475;43.358;1.248;2023-02-14T04:22:23;5.40;93.40
51383;DHT22;37475;43.358;1.248;2023-02-14T04:24:49;5.40;93.40
51383;DHT22;37475;43.358;1.248;2023-02-14T04:27:15;5.40;93.60
51383;DHT22;37475;43.358;1.248;2023-02-14T04:29:46;5.20;93.60
51383;DHT22;37475;43.358;1.248;2023-02-14T04:32:15;5.30;93.70
51383;DHT22;37475;43.358;1.248;2023-02-14T04:34:42;5.20;93.60
51383;DHT22;37475;43.358;1.248;2023-02-14T04:37:08;5.20;93.70
51383;DHT22;37475;43.358;1.248;2023-02-14T04:39:35;5.10;93.60
51383;DHT22;37475;43.358;1.248;2023-02-14T04:42:02;5.00;93.60
51383;DHT22;37475;43.358;1.248;2023-02-14T04:44:28;5.10;93.80
51383;DHT22;37475;43.358;1.248;2023-02-14T04:46:54;5.00;93.70
51383;DHT22;37475;43.358;1.248;2023-02-14T04:49:20;5.00;93.70
51383;DHT22;37475;43.358;1.248;2023-02-14T04:51:46;5.00;93.80
51383;DHT22;37475;43.358;1.248;2023-02-14T04:54:12;5.10;93.90
51383;DHT22;37475;43.358;1.248;2023-02-14T04:56:38;5.10;94.00
51383;DHT22;37475;43.358;1.248;2023-02-14T04:59:04;5.10;94.30
51383;DHT22;37475;43.358;1.248;2023-02-14T05:01:30;5.20;94.40
51383;DHT22;37475;43.358;1.248;2023-02-14T05:03:56;5.20;94.40
51383;DHT22;37475;43.358;1.248;2023-02-14T05:06:22;5.20;94.40
51383;DHT22;37475;43.358;1.248;2023-02-14T05:08:48;5.30;94.20
51383;DHT22;37475;43.358;1.248;2023-02-14T05:11:14;5.20;94.10
51383;DHT22;37475;43.358;1.248;2023-02-14T05:13:40;5.30;94.20
51383;DHT22;37475;43.358;1.248;2023-02-14T05:16:05;5.30;93.90
51383;DHT22;37475;43.358;1.248;2023-02-14T05:18:31;5.20;93.90
51383;DHT22;37475;43.358;1.248;2023-02-14T05:20:57;5.10;93.80
51383;DHT22;37475;43.358;1.248;2023-02-14T05:23:23;5.10;93.90
51383;DHT22;37475;43.358;1.248;2023-02-14T05:25:50;5.00;93.80
51383;DHT22;37475;43.358;1.248;2023-02-14T05:28:17;4.80;93.70
51383;DHT22;37475;43.358;1.248;2023-02-14T05:30:43;4.70;93.60
51383;DHT22;37475;43.358;1.248;2023-02-14T05:33:10;4.60;93.60
51383;DHT22;37475;43.358;1.248;2023-02-14T05:35:36;4.70;93.90
51383;DHT22;37475;43.358;1.248;2023-02-14T05:38:02;4.50;93.80
51383;DHT22;37475;43.358;1.248;2023-02-14T05:40:28;4.30;93.80
51383;DHT22;37475;43.358;1.248;2023-02-14T05:42:54;4.10;93.80
51383;DHT22;37475;43.358;1.248;2023-02-14T05:45:21;3.90;93.90
51383;DHT22;37475;43.358;1.248;2023-02-14T05:47:48;3.80;94.00
51383;DHT22;37475;43.358;1.248;2023-02-14T05:50:15;3.80;94.10
51383;DHT22;37475;43.358;1.248;2023-02-14T05:52:42;3.50;93.80
51383;DHT22;37475;43.358;1.248;2023-02-14T05:55:08;3.20;93.40
51383;DHT22;37475;43.358;1.248;2023-02-14T05:57:35;3.10;93.60
51383;DHT22;37475;43.358;1.248;2023-02-14T06:00:02;2.70;93.20
51383;DHT22;37475;43.358;1.248;2023-02-14T06:02:31;2.70;93.40
51383;DHT22;37475;43.358;1.248;2023-02-14T06:04:57;2.40;93.00
51383;DHT22;37475;43.358;1.248;2023-02-14T06:07:23;2.30;93.10
51383;DHT22;37475;43.358;1.248;2023-02-14T06:09:49;2.20;93.10
51383;DHT22;37475;43.358;1.248;2023-02-14T06:12:15;2.00;93.10
51383;DHT22;37475;43.358;1.248;2023-02-14T06:14:40;2.10;93.40
51383;DHT22;37475;43.358;1.248;2023-02-14T06:17:08;2.20;93.30
51383;DHT22;37475;43.358;1.248;2023-02-14T06:19:35;2.10;93.10
51383;DHT22;37475;43.358;1.248;2023-02-14T06:22:01;1.90;93.00
51383;DHT22;37475;43.358;1.248;2023-02-14T06:24:27;1.60;93.00
51383;DHT22;37475;43.358;1.248;2023-02-14T06:26:52;1.30;93.20
51383;DHT22;37475;43.358;1.248;2023-02-14T06:29:18;1.10;93.20
51383;DHT22;37475;43.358;1.248;2023-02-14T06:31:44;0.90;93.20
51383;DHT22;37475;43.358;1.248;2023-02-14T06:34:10;0.80;93.30
51383;DHT22;37475;43.358;1.248;2023-02-14T06:36:36;0.70;93.30
51383;DHT22;37475;43.358;1.248;2023-02-14T06:39:02;0.60;93.30
51383;DHT22;37475;43.358;1.248;2023-02-14T06:41:28;0.40;93.30
51383;DHT22;37475;43.358;1.248;2023-02-14T06:43:54;0.30;93.40
51383;DHT22;37475;43.358;1.248;2023-02-14T06:46:20;0.20;93.50
51383;DHT22;37475;43.358;1.248;2023-02-14T06:48:46;0.20;93.60
51383;DHT22;37475;43.358;1.248;2023-02-14T06:51:12;0.20;93.60
51383;DHT22;37475;43.358;1.248;2023-02-14T06:53:38;0.20;93.60
51383;DHT22;37475;43.358;1.248;2023-02-14T06:56:04;0.10;93.60
51383;DHT22;37475;43.358;1.248;2023-02-14T06:58:31;0.10;93.60
51383;DHT22;37475;43.358;1.248;2023-02-14T07:00:57;0.00;93.70
51383;DHT22;37475;43.358;1.248;2023-02-14T07:03:26;0.00;93.80
51383;DHT22;37475;43.358;1.248;2023-02-14T07:05:53;0.00;94.00
51383;DHT22;37475;43.358;1.248;2023-02-14T07:08:19;0.00;94.10
51383;DHT22;37475;43.358;1.248;2023-02-14T07:10:45;-3276.70;94.10
51383;DHT22;37475;43.358;1.248;2023-02-14T07:13:11;-3276.60;94.20
51383;DHT22;37475;43.358;1.248;2023-02-14T07:15:38;-3276.60;94.30
51383;DHT22;37475;43.358;1.248;2023-02-14T07:18:04;-3276.60;94.40
51383;DHT22;37475;43.358;1.248;2023-02-14T07:20:33;-3276.60;94.50
51383;DHT22;37475;43.358;1.248;2023-02-14T07:22:59;-3276.60;94.60
51383;DHT22;37475;43.358;1.248;2023-02-14T07:25:25;-3276.50;94.70
51383;DHT22;37475;43.358;1.248;2023-02-14T07:27:52;-3276.60;94.70
51383;DHT22;37475;43.358;1.248;2023-02-14T07:30:18;-3276.60;94.70
51383;DHT22;37475;43.358;1.248;2023-02-14T07:32:44;-3276.60;94.80
51383;DHT22;37475;43.358;1.248;2023-02-14T07:35:10;-3276.60;94.70
51383;DHT22;37475;43.358;1.248;2023-02-14T07:37:36;-3276.60;94.80
51383;DHT22;37475;43.358;1.248;2023-02-14T07:40:04;-3276.70;94.80
51383;DHT22;37475;43.358;1.248;2023-02-14T07:42:30;-3276.70;94.70
51383;DHT22;37475;43.358;1.248;2023-02-14T07:44:56;-3276.70;94.70
51383;DHT22;37475;43.358;1.248;2023-02-14T07:47:22;0.00;94.70
51383;DHT22;37475;43.358;1.248;2023-02-14T07:49:49;0.00;94.70
51383;DHT22;37475;43.358;1.248;2023-02-14T07:52:16;0.00;94.60
51383;DHT22;37475;43.358;1.248;2023-02-14T07:54:41;0.00;94.60
51383;DHT22;37475;43.358;1.248;2023-02-14T07:57:07;0.00;94.60
51383;DHT22;37475;43.358;1.248;2023-02-14T07:59:34;-3276.70;94.40
51383;DHT22;37475;43.358;1.248;2023-02-14T08:01:59;-3276.70;94.50
51383;DHT22;37475;43.358;1.248;2023-02-14T08:04:25;0.00;94.50
51383;DHT22;37475;43.358;1.248;2023-02-14T08:06:52;0.00;94.50
51383;DHT22;37475;43.358;1.248;2023-02-14T08:09:18;0.00;94.50
51383;DHT22;37475;43.358;1.248;2023-02-14T08:11:54;0.00;94.40
51383;DHT22;37475;43.358;1.248;2023-02-14T08:14:41;0.00;94.40
51383;DHT22;37475;43.358;1.248;2023-02-14T08:17:07;0.10;94.50
51383;DHT22;37475;43.358;1.248;2023-02-14T08:19:39;0.30;94.50
51383;DHT22;37475;43.358;1.248;2023-02-14T08:22:05;0.50;94.40
51383;DHT22;37475;43.358;1.248;2023-02-14T08:24:31;0.60;94.50
51383;DHT22;37475;43.358;1.248;2023-02-14T08:26:57;0.80;94.40
51383;DHT22;37475;43.358;1.248;2023-02-14T08:29:24;0.90;94.30
51383;DHT22;37475;43.358;1.248;2023-02-14T08:31:50;1.10;94.30
51383;DHT22;37475;43.358;1.248;2023-02-14T08:34:17;1.20;94.30
51383;DHT22;37475;43.358;1.248;2023-02-14T08:36:43;1.40;94.20
51383;DHT22;37475;43.358;1.248;2023-02-14T08:39:10;1.60;94.10
51383;DHT22;37475;43.358;1.248;2023-02-14T08:41:36;1.70;94.00
51383;DHT22;37475;43.358;1.248;2023-02-14T08:44:02;2.00;93.90
51383;DHT22;37475;43.358;1.248;2023-02-14T08:46:28;2.20;93.70
51383;DHT22;37475;43.358;1.248;2023-02-14T08:48:54;2.40;93.40
51383;DHT22;37475;43.358;1.248;2023-02-14T08:51:21;2.60;92.90
51383;DHT22;37475;43.358;1.248;2023-02-14T08:53:49;2.80;92.60
51383;DHT22;37475;43.358;1.248;2023-02-14T08:56:16;3.00;92.40
51383;DHT22;37475;43.358;1.248;2023-02-14T08:58:43;3.20;92.30
51383;DHT22;37475;43.358;1.248;2023-02-14T09:01:12;3.40;92.20
51383;DHT22;37475;43.358;1.248;2023-02-14T09:03:40;3.50;92.10
51383;DHT22;37475;43.358;1.248;2023-02-14T09:06:08;3.80;92.10
51383;DHT22;37475;43.358;1.248;2023-02-14T09:08:36;4.00;91.90
51383;DHT22;37475;43.358;1.248;2023-02-14T09:11:07;4.20;91.80
51383;DHT22;37475;43.358;1.248;2023-02-14T09:13:38;4.40;91.60
51383;DHT22;37475;43.358;1.248;2023-02-14T09:16:06;4.60;91.50
51383;DHT22;37475;43.358;1.248;2023-02-14T09:18:33;5.30;92.40
51383;DHT22;37475;43.358;1.248;2023-02-14T09:20:59;6.10;93.50
51383;DHT22;37475;43.358;1.248;2023-02-14T09:23:26;7.10;92.90
51383;DHT22;37475;43.358;1.248;2023-02-14T09:25:59;7.60;90.60
51383;DHT22;37475;43.358;1.248;2023-02-14T09:28:26;8.10;88.90
51383;DHT22;37475;43.358;1.248;2023-02-14T09:30:52;8.30;88.00
51383;DHT22;37475;43.358;1.248;2023-02-14T09:33:18;8.50;87.70
51383;DHT22;37475;43.358;1.248;2023-02-14T09:35:44;8.60;86.10
51383;DHT22;37475;43.358;1.248;2023-02-14T09:38:29;8.70;86.40
51383;DHT22;37475;43.358;1.248;2023-02-14T09:40:55;8.80;85.40
51383;DHT22;37475;43.358;1.248;2023-02-14T09:43:35;9.00;85.00
51383;DHT22;37475;43.358;1.248;2023-02-14T09:46:13;9.00;84.60
51383;DHT22;37475;43.358;1.248;2023-02-14T09:48:43;9.10;84.90
51383;DHT22;37475;43.358;1.248;2023-02-14T09:51:23;9.20;84.50
51383;DHT22;37475;43.358;1.248;2023-02-14T09:54:21;9.40;84.30
51383;DHT22;37475;43.358;1.248;2023-02-14T09:56:56;9.60;83.70
51383;DHT22;37475;43.358;1.248;2023-02-14T09:59:46;9.80;83.60
51383;DHT22;37475;43.358;1.248;2023-02-14T10:05:28;9.90;82.10
51383;DHT22;37475;43.358;1.248;2023-02-14T10:07:59;10.10;82.30
51383;DHT22;37475;43.358;1.248;2023-02-14T10:10:42;10.10;81.20
51383;DHT22;37475;43.358;1.248;2023-02-14T10:13:43;10.20;81.20
51383;DHT22;37475;43.358;1.248;2023-02-14T10:16:52;10.40;80.80
51383;DHT22;37475;43.358;1.248;2023-02-14T10:22:13;10.60;79.10
51383;DHT22;37475;43.358;1.248;2023-02-14T10:25:00;10.70;78.60
51383;DHT22;37475;43.358;1.248;2023-02-14T10:27:30;11.00;78.90
51383;DHT22;37475;43.358;1.248;2023-02-14T10:29:59;11.10;77.90
51383;DHT22;37475;43.358;1.248;2023-02-14T10:33:07;11.40;76.90
51383;DHT22;37475;43.358;1.248;2023-02-14T10:35:46;11.70;76.80
51383;DHT22;37475;43.358;1.248;2023-02-14T10:38:20;12.00;76.40
51383;DHT22;37475;43.358;1.248;2023-02-14T10:47:03;12.60;75.30
51383;DHT22;37475;43.358;1.248;2023-02-14T10:49:48;12.60;74.20
51383;DHT22;37475;43.358;1.248;2023-02-14T10:54:53;12.60;73.90
51383;DHT22;37475;43.358;1.248;2023-02-14T10:57:40;12.90;73.00
51383;DHT22;37475;43.358;1.248;2023-02-14T11:00:25;13.10;72.70
51383;DHT22;37475;43.358;1.248;2023-02-14T11:02:56;13.30;70.50
51383;DHT22;37475;43.358;1.248;2023-02-14T11:05:45;13.40;70.30
51383;DHT22;37475;43.358;1.248;2023-02-14T11:08:31;13.50;68.70
51383;DHT22;37475;43.358;1.248;2023-02-14T11:13:40;13.20;68.40
51383;DHT22;37475;43.358;1.248;2023-02-14T11:16:12;13.20;68.10
51383;DHT22;37475;43.358;1.248;2023-02-14T11:21:42;13.80;67.50
51383;DHT22;37475;43.358;1.248;2023-02-14T11:24:39;13.90;66.30
51383;DHT22;37475;43.358;1.248;2023-02-14T11:29:45;14.30;67.30
51383;DHT22;37475;43.358;1.248;2023-02-14T11:32:27;14.60;65.80
51383;DHT22;37475;43.358;1.248;2023-02-14T11:35:07;14.50;64.10
51383;DHT22;37475;43.358;1.248;2023-02-14T11:37:49;14.30;64.10
51383;DHT22;37475;43.358;1.248;2023-02-14T11:40:30;14.50;64.20
51383;DHT22;37475;43.358;1.248;2023-02-14T11:43:16;14.60;63.60
51383;DHT22;37475;43.358;1.248;2023-02-14T11:45:48;14.80;64.40
51383;DHT22;37475;43.358;1.248;2023-02-14T11:48:22;15.00;64.00
51383;DHT22;37475;43.358;1.248;2023-02-14T11:51:08;15.80;62.70
51383;DHT22;37475;43.358;1.248;2023-02-14T11:53:55;15.30;62.70
51383;DHT22;37475;43.358;1.248;2023-02-14T11:59:46;15.80;62.10
51383;DHT22;37475;43.358;1.248;2023-02-14T12:02:26;15.70;61.60
51383;DHT22;37475;43.358;1.248;2023-02-14T12:04:59;15.60;60.90
51383;DHT22;37475;43.358;1.248;2023-02-14T12:07:34;14.90;64.20
51383;DHT22;37475;43.358;1.248;2023-02-14T12:18:40;15.60;62.10
51383;DHT22;37475;43.358;1.248;2023-02-14T12:21:32;15.80;60.60
51383;DHT22;37475;43.358;1.248;2023-02-14T12:24:22;15.80;61.10
51383;DHT22;37475;43.358;1.248;2023-02-14T12:29:53;15.30;60.40
51383;DHT22;37475;43.358;1.248;2023-02-14T12:32:30;15.40;61.50
51383;DHT22;37475;43.358;1.248;2023-02-14T12:37:49;16.20;60.60
51383;DHT22;37475;43.358;1.248;2023-02-14T12:40:37;16.10;59.00
51383;DHT22;37475;43.358;1.248;2023-02-14T12:46:39;16.80;57.60
51383;DHT22;37475;43.358;1.248;2023-02-14T12:49:52;16.00;58.60
51383;DHT22;37475;43.358;1.248;2023-02-14T13:04:19;16.50;57.20
51383;DHT22;37475;43.358;1.248;2023-02-14T13:07:18;16.80;56.20
51383;DHT22;37475;43.358;1.248;2023-02-14T13:09:57;16.10;57.80
51383;DHT22;37475;43.358;1.248;2023-02-14T13:19:01;16.90;56.20
51383;DHT22;37475;43.358;1.248;2023-02-14T13:21:33;17.10;54.00
51383;DHT22;37475;43.358;1.248;2023-02-14T13:26:39;16.40;56.80
51383;DHT22;37475;43.358;1.248;2023-02-14T13:29:13;16.60;56.60
51383;DHT22;37475;43.358;1.248;2023-02-14T13:31:45;16.90;56.10
51383;DHT22;37475;43.358;1.248;2023-02-14T13:36:44;17.50;55.90
51383;DHT22;37475;43.358;1.248;2023-02-14T13:39:23;17.90;54.50
51383;DHT22;37475;43.358;1.248;2023-02-14T13:41:52;17.90;54.20
51383;DHT22;37475;43.358;1.248;2023-02-14T13:47:26;17.40;55.40
51383;DHT22;37475;43.358;1.248;2023-02-14T13:49:55;17.90;55.30
51383;DHT22;37475;43.358;1.248;2023-02-14T13:52:39;17.60;54.90
51383;DHT22;37475;43.358;1.248;2023-02-14T13:55:25;17.90;53.40
51383;DHT22;37475;43.358;1.248;2023-02-14T13:58:01;17.40;54.80
51383;DHT22;37475;43.358;1.248;2023-02-14T14:00:49;17.70;55.00
51383;DHT22;37475;43.358;1.248;2023-02-14T14:08:34;18.40;52.70
51383;DHT22;37475;43.358;1.248;2023-02-14T14:11:05;18.10;53.70
51383;DHT22;37475;43.358;1.248;2023-02-14T14:21:38;18.70;52.60
51383;DHT22;37475;43.358;1.248;2023-02-14T14:24:21;17.60;54.20
51383;DHT22;37475;43.358;1.248;2023-02-14T14:29:58;18.10;52.30
51383;DHT22;37475;43.358;1.248;2023-02-14T14:32:34;18.40;51.80
51383;DHT22;37475;43.358;1.248;2023-02-14T14:37:51;17.80;52.50
51383;DHT22;37475;43.358;1.248;2023-02-14T14:42:56;18.30;52.10
51383;DHT22;37475;43.358;1.248;2023-02-14T14:45:27;18.40;52.30
51383;DHT22;37475;43.358;1.248;2023-02-14T14:47:58;18.60;51.80
51383;DHT22;37475;43.358;1.248;2023-02-14T14:50:30;18.60;52.30
51383;DHT22;37475;43.358;1.248;2023-02-14T14:53:12;17.60;54.10
51383;DHT22;37475;43.358;1.248;2023-02-14T14:55:45;17.00;54.30
51383;DHT22;37475;43.358;1.248;2023-02-14T15:01:04;17.80;53.40
51383;DHT22;37475;43.358;1.248;2023-02-14T15:03:32;17.60;54.20
51383;DHT22;37475;43.358;1.248;2023-02-14T15:08:32;17.60;52.90
51383;DHT22;37475;43.358;1.248;2023-02-14T15:11:01;17.10;55.60
51383;DHT22;37475;43.358;1.248;2023-02-14T15:13:40;16.60;55.80
51383;DHT22;37475;43.358;1.248;2023-02-14T15:19:37;16.60;56.30
51383;DHT22;37475;43.358;1.248;2023-02-14T15:24:44;17.00;55.60
51383;DHT22;37475;43.358;1.248;2023-02-14T15:27:16;16.50;56.00
51383;DHT22;37475;43.358;1.248;2023-02-14T15:29:59;16.40;56.40
51383;DHT22;37475;43.358;1.248;2023-02-14T15:32:30;16.80;56.10
51383;DHT22;37475;43.358;1.248;2023-02-14T15:35:00;16.30;56.50
51383;DHT22;37475;43.358;1.248;2023-02-14T15:37:27;16.10;57.80
51383;DHT22;37475;43.358;1.248;2023-02-14T15:39:54;15.60;58.90
51383;DHT22;37475;43.358;1.248;2023-02-14T15:42:30;15.50;59.40
51383;DHT22;37475;43.358;1.248;2023-02-14T15:45:32;15.00;61.00
51383;DHT22;37475;43.358;1.248;2023-02-14T15:47:59;14.40;62.80
51383;DHT22;37475;43.358;1.248;2023-02-14T15:50:34;13.80;64.00
51383;DHT22;37475;43.358;1.248;2023-02-14T15:53:40;13.50;65.20
51383;DHT22;37475;43.358;1.248;2023-02-14T15:56:14;13.20;66.50
51383;DHT22;37475;43.358;1.248;2023-02-14T15:59:06;13.10;67.00
51383;DHT22;37475;43.358;1.248;2023-02-14T16:01:39;12.80;68.20
51383;DHT22;37475;43.358;1.248;2023-02-14T16:04:05;12.80;68.30
51383;DHT22;37475;43.358;1.248;2023-02-14T16:06:42;12.70;68.50
51383;DHT22;37475;43.358;1.248;2023-02-14T16:09:29;12.50;69.20
51383;DHT22;37475;43.358;1.248;2023-02-14T16:11:58;12.30;69.90
51383;DHT22;37475;43.358;1.248;2023-02-14T16:14:31;12.30;70.60
51383;DHT22;37475;43.358;1.248;2023-02-14T16:17:10;12.30;70.50
51383;DHT22;37475;43.358;1.248;2023-02-14T16:19:43;12.50;70.00
51383;DHT22;37475;43.358;1.248;2023-02-14T16:22:30;12.80;69.10
51383;DHT22;37475;43.358;1.248;2023-02-14T16:25:00;12.90;69.20
51383;DHT22;37475;43.358;1.248;2023-02-14T16:27:26;12.80;68.80
51383;DHT22;37475;43.358;1.248;2023-02-14T16:29:52;12.20;70.40
51383;DHT22;37475;43.358;1.248;2023-02-14T16:32:20;12.20;70.70
51383;DHT22;37475;43.358;1.248;2023-02-14T16:34:47;12.00;71.40
51383;DHT22;37475;43.358;1.248;2023-02-14T16:37:21;11.80;72.30
51383;DHT22;37475;43.358;1.248;2023-02-14T16:39:51;11.70;72.50
51383;DHT22;37475;43.358;1.248;2023-02-14T16:42:19;11.60;73.10
51383;DHT22;37475;43.358;1.248;2023-02-14T16:44:45;11.50;73.70
51383;DHT22;37475;43.358;1.248;2023-02-14T16:47:13;11.40;74.10
51383;DHT22;37475;43.358;1.248;2023-02-14T16:49:41;11.30;74.10
51383;DHT22;37475;43.358;1.248;2023-02-14T16:52:13;11.20;74.30
51383;DHT22;37475;43.358;1.248;2023-02-14T16:54:41;11.20;74.50
51383;DHT22;37475;43.358;1.248;2023-02-14T16:57:17;11.10;74.90
51383;DHT22;37475;43.358;1.248;2023-02-14T16:59:45;11.10;74.80
51383;DHT22;37475;43.358;1.248;2023-02-14T17:02:11;11.00;75.20
51383;DHT22;37475;43.358;1.248;2023-02-14T17:04:38;10.90;75.60
51383;DHT22;37475;43.358;1.248;2023-02-14T17:07:05;10.80;76.10
51383;DHT22;37475;43.358;1.248;2023-02-14T17:09:38;10.70;76.50
51383;DHT22;37475;43.358;1.248;2023-02-14T17:12:09;10.60;76.90
51383;DHT22;37475;43.358;1.248;2023-02-14T17:14:42;10.50;77.50
51383;DHT22;37475;43.358;1.248;2023-02-14T17:17:10;10.50;77.80
51383;DHT22;37475;43.358;1.248;2023-02-14T17:19:36;10.40;78.00
51383;DHT22;37475;43.358;1.248;2023-02-14T17:22:02;10.30;78.10
51383;DHT22;37475;43.358;1.248;2023-02-14T17:24:31;10.20;78.70
51383;DHT22;37475;43.358;1.248;2023-02-14T17:26:57;10.20;78.90
51383;DHT22;37475;43.358;1.248;2023-02-14T17:29:23;10.10;79.20
51383;DHT22;37475;43.358;1.248;2023-02-14T17:31:49;10.10;79.10
51383;DHT22;37475;43.358;1.248;2023-02-14T17:34:14;10.10;79.30
51383;DHT22;37475;43.358;1.248;2023-02-14T17:36:40;10.10;79.30
51383;DHT22;37475;43.358;1.248;2023-02-14T17:39:06;10.00;79.80
51383;DHT22;37475;43.358;1.248;2023-02-14T17:41:32;9.80;80.20
51383;DHT22;37475;43.358;1.248;2023-02-14T17:43:58;9.90;80.30
51383;DHT22;37475;43.358;1.248;2023-02-14T17:46:29;9.70;80.50
51383;DHT22;37475;43.358;1.248;2023-02-14T17:48:56;9.80;80.40
51383;DHT22;37475;43.358;1.248;2023-02-14T17:51:23;9.60;80.90
51383;DHT22;37475;43.358;1.248;2023-02-14T17:53:50;9.60;81.20
51383;DHT22;37475;43.358;1.248;2023-02-14T17:56:21;9.60;81.10
51383;DHT22;37475;43.358;1.248;2023-02-14T17:58:50;9.60;81.40
51383;DHT22;37475;43.358;1.248;2023-02-14T18:01:21;9.50;81.60
51383;DHT22;37475;43.358;1.248;2023-02-14T18:03:49;9.50;81.50
51383;DHT22;37475;43.358;1.248;2023-02-14T18:06:16;9.50;81.70
51383;DHT22;37475;43.358;1.248;2023-02-14T18:08:45;9.30;82.10
51383;DHT22;37475;43.358;1.248;2023-02-14T18:11:17;9.30;82.60
51383;DHT22;37475;43.358;1.248;2023-02-14T18:13:44;9.30;82.60
51383;DHT22;37475;43.358;1.248;2023-02-14T18:16:15;9.40;82.50
51383;DHT22;37475;43.358;1.248;2023-02-14T18:18:43;9.30;82.70
51383;DHT22;37475;43.358;1.248;2023-02-14T18:21:13;9.30;82.90
51383;DHT22;37475;43.358;1.248;2023-02-14T18:23:40;9.30;82.90
51383;DHT22;37475;43.358;1.248;2023-02-14T18:26:10;9.20;83.10
51383;DHT22;37475;43.358;1.248;2023-02-14T18:28:37;9.10;83.20